Time;durP1;ratioP1;P1;durP2;ratioP2;P2;SDS_P1;SDS_P2;PMS_P1;PMS_P2;Temp;Humidity;BMP_temperature;BMP_pressure;BME280_temperature;BME280_humidity;BME280_pressure;Samples;Min_cycle;Max_cycle;Signal;HPM_P1;HPM_P2
2023/04/04 00:01:16;;;;;;;1.15;0.93;;;;;;;22.97;30.77;101095.03;7395083;19;20324;-69
2023/04/04 00:03:42;;;;;;;1.90;1.60;;;;;;;22.93;30.42;101090.94;7398673;19;20042;-69
2023/04/04 00:06:09;;;;;;;0.77;0.77;;;;;;;22.90;30.19;101092.75;7395150;19;20047;-69
2023/04/04 00:08:35;;;;;;;0.57;0.57;;;;;;;22.83;30.07;101101.84;7394466;19;20471;-68
2023/04/04 00:11:01;;;;;;;8.55;1.95;;;;;;;22.79;30.09;101097.75;7394278;19;20523;-69
2023/04/04 00:13:28;;;;;;;0.70;0.70;;;;;;;22.89;30.20;101104.66;7397236;19;20018;-69
2023/04/04 00:15:55;;;;;;;0.82;0.82;;;;;;;23.04;29.75;101107.88;7392738;19;20332;-69
2023/04/04 00:18:21;;;;;;;1.40;1.30;;;;;;;23.03;29.62;101106.31;7393586;19;20006;-69
2023/04/04 00:20:47;;;;;;;0.75;0.75;;;;;;;22.99;29.84;101103.00;7393455;19;20021;-69
2023/04/04 00:23:13;;;;;;;1.00;0.90;;;;;;;22.99;29.51;101111.53;7396987;19;20003;-69
2023/04/04 00:25:39;;;;;;;0.30;0.30;;;;;;;22.86;29.76;101111.41;7394714;19;20021;-69
2023/04/04 00:28:05;;;;;;;0.60;0.50;;;;;;;22.81;29.49;101106.53;7394158;19;20026;-70
2023/04/04 00:30:33;;;;;;;9.52;0.75;;;;;;;22.75;29.76;101106.59;7397274;19;20010;-69
2023/04/04 00:33:00;;;;;;;0.77;0.75;;;;;;;22.63;29.56;101104.38;7400206;19;20014;-68
2023/04/04 00:35:26;;;;;;;0.30;0.30;;;;;;;22.48;29.66;101105.50;7400473;19;20024;-68
2023/04/04 00:37:52;;;;;;;2.55;1.10;;;;;;;22.40;29.38;101101.69;7401063;19;20011;-67
2023/04/04 00:40:19;;;;;;;0.77;0.77;;;;;;;22.16;29.72;101104.44;7401930;19;20006;-68
2023/04/04 00:42:45;;;;;;;0.70;0.70;;;;;;;22.29;29.85;101098.94;7402545;19;20014;-68
2023/04/04 00:45:11;;;;;;;0.20;0.20;;;;;;;22.29;29.51;101095.31;7400893;19;20018;-68
2023/04/04 00:47:42;;;;;;;1.52;1.42;;;;;;;22.25;29.37;101095.63;7400208;19;20021;-68
2023/04/04 00:50:08;;;;;;;0.40;0.40;;;;;;;22.37;29.45;101091.38;7399091;19;20043;-68
2023/04/04 00:52:36;;;;;;;0.32;0.32;;;;;;;22.40;29.13;101098.06;7401872;19;20014;-68
2023/04/04 00:55:03;;;;;;;0.93;0.70;;;;;;;22.42;29.33;101096.25;7400701;19;20027;-68
2023/04/04 00:57:31;;;;;;;0.40;0.40;;;;;;;22.39;29.33;101094.47;7400302;19;20447;-66
2023/04/04 00:59:59;;;;;;;1.73;0.98;;;;;;;22.37;29.41;101088.53;7400811;19;20010;-68
2023/04/04 01:02:25;;;;;;;0.52;0.52;;;;;;;22.34;28.93;101086.78;7400462;19;20003;-68
2023/04/04 01:04:51;;;;;;;1.60;1.00;;;;;;;22.28;28.91;101077.53;7399225;19;20014;-68
2023/04/04 01:07:18;;;;;;;1.52;0.55;;;;;;;22.22;29.41;101073.94;7400863;19;20019;-68
2023/04/04 01:09:46;;;;;;;0.75;0.75;;;;;;;22.25;29.15;101078.59;7400448;19;20355;-67
2023/04/04 01:12:14;;;;;;;0.95;0.55;;;;;;;22.27;28.70;101075.22;7400023;19;20021;-68
2023/04/04 01:14:40;;;;;;;0.95;0.95;;;;;;;22.30;28.55;101063.59;7398140;19;20027;-68
2023/04/04 01:17:07;;;;;;;0.40;0.40;;;;;;;22.24;29.10;101062.84;7399503;19;20070;-68
2023/04/04 01:19:46;;;;;;;0.77;0.77;;;;;;;22.20;28.76;101051.00;7399108;19;20018;-68
2023/04/04 01:22:17;;;;;;;0.95;0.88;;;;;;;22.13;29.12;101056.50;7398699;19;20506;-68
2023/04/04 01:24:45;;;;;;;5.38;1.00;;;;;;;22.08;28.75;101058.06;7398010;19;20013;-69
2023/04/04 01:27:13;;;;;;;2.08;0.60;;;;;;;22.02;28.90;101054.50;7397310;19;20032;-69
2023/04/04 01:29:45;;;;;;;0.45;0.45;;;;;;;21.98;28.75;101054.03;7401187;19;20014;-68
2023/04/04 01:32:31;;;;;;;0.50;0.50;;;;;;;21.96;29.02;101055.84;7399120;19;20070;-68
2023/04/04 01:35:06;;;;;;;0.55;0.55;;;;;;;21.89;28.71;101057.19;7397617;19;20014;-67
2023/04/04 01:37:58;;;;;;;0.70;0.70;;;;;;;21.91;28.78;101054.59;7397480;19;20469;-67
2023/04/04 01:40:33;;;;;;;0.43;0.43;;;;;;;21.76;29.06;101054.91;7398878;19;20011;-67
2023/04/04 01:43:00;;;;;;;0.60;0.60;;;;;;;21.67;28.98;101052.38;7399692;19;20024;-67
2023/04/04 01:45:29;;;;;;;1.42;0.82;;;;;;;21.66;28.90;101047.97;7395172;19;20011;-68
2023/04/04 01:47:57;;;;;;;1.10;0.85;;;;;;;21.65;28.98;101049.28;7396252;19;20010;-68
2023/04/04 01:50:25;;;;;;;1.48;1.38;;;;;;;21.61;28.72;101053.69;7397289;19;20011;-68
2023/04/04 01:52:52;;;;;;;0.90;0.90;;;;;;;21.56;28.94;101048.81;7399977;19;20014;-68
2023/04/04 01:55:18;;;;;;;0.60;0.60;;;;;;;21.49;28.85;101052.19;7396487;19;20102;-67
2023/04/04 01:57:44;;;;;;;0.63;0.63;;;;;;;21.47;28.66;101046.28;7398215;19;20017;-67
2023/04/04 02:00:11;;;;;;;0.57;0.57;;;;;;;21.39;28.64;101053.78;7399738;19;20022;-67
2023/04/04 02:02:43;;;;;;;0.80;0.80;;;;;;;21.31;28.97;101041.47;7399839;19;20003;-67
2023/04/04 02:05:11;;;;;;;1.20;0.75;;;;;;;21.27;28.92;101043.81;7397177;19;20023;-68
2023/04/04 02:07:37;;;;;;;0.45;0.45;;;;;;;21.21;29.08;101038.16;7397177;19;20070;-67
2023/04/04 02:10:10;;;;;;;1.30;1.13;;;;;;;21.26;29.34;101045.09;7396748;19;20010;-68
2023/04/04 02:12:38;;;;;;;0.55;0.55;;;;;;;21.34;28.63;101051.75;7399072;19;20018;-68
2023/04/04 02:15:05;;;;;;;0.90;0.90;;;;;;;21.20;29.13;101041.50;7396587;19;20018;-68
2023/04/04 02:17:31;;;;;;;0.40;0.40;;;;;;;21.08;28.82;101035.88;7395178;19;20018;-68
2023/04/04 02:19:58;;;;;;;0.60;0.60;;;;;;;21.05;29.16;101036.91;7396459;19;20014;-67
2023/04/04 02:22:24;;;;;;;0.40;0.40;;;;;;;21.02;28.75;101031.50;7399165;19;20011;-67
2023/04/04 02:24:52;;;;;;;3.55;1.30;;;;;;;21.00;28.79;101034.09;7397862;19;20474;-68
2023/04/04 02:27:20;;;;;;;0.55;0.55;;;;;;;20.90;29.04;101025.09;7396436;19;20036;-67
2023/04/04 02:29:47;;;;;;;2.22;0.80;;;;;;;20.91;29.11;101032.31;7400801;19;20038;-67
2023/04/04 02:32:13;;;;;;;3.55;1.23;;;;;;;20.84;28.84;101027.16;7396244;19;20010;-67
2023/04/04 02:34:40;;;;;;;1.13;1.13;;;;;;;20.83;28.79;101031.31;7395206;19;20498;-67
2023/04/04 02:37:07;;;;;;;0.57;0.57;;;;;;;20.77;29.05;101027.69;7393486;19;20462;-67
2023/04/04 02:39:34;;;;;;;24.50;1.40;;;;;;;20.79;29.01;101033.59;7394095;19;20027;-66
2023/04/04 02:42:00;;;;;;;0.90;0.90;;;;;;;20.80;28.66;101031.53;7396941;19;20126;-67
2023/04/04 02:44:26;;;;;;;0.52;0.52;;;;;;;20.83;29.01;101022.81;7395503;19;20077;-67
2023/04/04 02:46:53;;;;;;;0.75;0.75;;;;;;;20.81;28.88;101018.94;7395947;19;20018;-67
2023/04/04 02:49:26;;;;;;;1.00;0.85;;;;;;;20.76;28.81;101020.50;7394810;19;20018;-67
2023/04/04 02:51:53;;;;;;;0.60;0.60;;;;;;;20.69;29.02;101014.59;7396417;19;20070;-66
2023/04/04 02:54:20;;;;;;;0.57;0.57;;;;;;;20.58;29.01;101017.44;7395930;19;20015;-65
2023/04/04 02:56:47;;;;;;;0.75;0.75;;;;;;;20.50;28.74;101027.75;7393250;19;20347;-66
2023/04/04 02:59:13;;;;;;;0.65;0.65;;;;;;;20.47;28.81;101037.25;7397442;19;20010;-66
2023/04/04 03:01:41;;;;;;;1.10;1.10;;;;;;;20.32;29.02;101037.53;7394665;19;20070;-66
2023/04/04 03:04:07;;;;;;;0.82;0.82;;;;;;;20.21;29.26;101038.28;7399675;19;20006;-66
2023/04/04 03:06:35;;;;;;;0.50;0.50;;;;;;;20.19;29.43;101040.06;7395674;19;20033;-65
2023/04/04 03:09:03;;;;;;;0.75;0.75;;;;;;;20.03;29.55;101038.75;7396965;19;20023;-65
2023/04/04 03:11:30;;;;;;;1.48;1.20;;;;;;;19.88;29.52;101037.47;7395248;19;20523;-65
2023/04/04 03:13:56;;;;;;;0.57;0.57;;;;;;;19.71;29.84;101033.84;7400477;19;20022;-65
2023/04/04 03:16:32;;;;;;;0.70;0.70;;;;;;;19.74;29.41;101032.81;7393654;19;20082;-65
2023/04/04 03:18:58;;;;;;;1.00;1.00;;;;;;;19.49;29.38;101034.56;7395154;19;20069;-65
2023/04/04 03:21:26;;;;;;;1.23;1.23;;;;;;;19.62;29.39;101024.28;7395550;19;20578;-64
2023/04/04 03:23:54;;;;;;;0.52;0.52;;;;;;;19.78;29.26;101022.78;7398107;19;20018;-64
2023/04/04 03:26:20;;;;;;;1.50;1.02;;;;;;;19.69;29.54;101020.19;7395958;19;20011;-64
2023/04/04 03:28:46;;;;;;;0.85;0.85;;;;;;;19.59;29.17;101018.91;7397680;19;20043;-64
2023/04/04 03:31:14;;;;;;;1.23;1.05;;;;;;;19.52;29.36;101011.69;7394629;19;20497;-65
2023/04/04 03:33:41;;;;;;;0.77;0.77;;;;;;;19.58;29.35;101008.88;7398285;19;20457;-64
2023/04/04 03:36:12;;;;;;;1.35;1.08;;;;;;;19.64;29.79;101012.50;7394781;19;20010;-64
2023/04/04 03:38:38;;;;;;;0.22;0.22;;;;;;;19.70;29.47;101009.66;7395443;19;20073;-64
2023/04/04 03:41:06;;;;;;;0.80;0.80;;;;;;;19.67;29.38;101009.41;7395899;19;20018;-64
2023/04/04 03:43:32;;;;;;;0.50;0.50;;;;;;;19.74;29.42;101004.53;7397599;19;20018;-64
2023/04/04 03:46:03;;;;;;;1.75;1.65;;;;;;;19.68;29.34;101007.38;7395561;19;20010;-64
2023/04/04 03:48:30;;;;;;;0.80;0.80;;;;;;;19.60;29.41;101000.66;7394224;19;20104;-64
2023/04/04 03:50:57;;;;;;;0.90;0.90;;;;;;;19.54;29.34;100997.81;7393167;19;20010;-64
2023/04/04 03:53:27;;;;;;;2.70;1.88;;;;;;;19.54;29.28;101003.47;7396389;19;20033;-64
2023/04/04 03:55:55;;;;;;;2.05;1.85;;;;;;;19.53;29.65;101007.56;7393202;19;20023;-64
2023/04/04 03:58:22;;;;;;;2.15;1.17;;;;;;;19.54;29.76;101005.53;7393687;19;20033;-63
2023/04/04 04:00:50;;;;;;;0.73;0.73;;;;;;;19.53;29.16;101007.56;7393369;19;20022;-63
2023/04/04 04:03:16;;;;;;;1.48;1.10;;;;;;;19.51;29.29;101004.47;7394890;19;20010;-64
2023/04/04 04:05:43;;;;;;;1.05;1.05;;;;;;;19.46;29.40;101007.31;7394327;19;20018;-63
2023/04/04 04:08:09;;;;;;;0.60;0.60;;;;;;;19.42;29.23;101018.88;7391188;19;20324;-63
2023/04/04 04:10:38;;;;;;;2.15;1.40;;;;;;;19.36;29.63;101017.31;7393392;19;20018;-62
2023/04/04 04:13:04;;;;;;;1.25;1.25;;;;;;;19.33;29.89;101009.81;7395904;19;20011;-63
2023/04/04 04:15:31;;;;;;;1.20;1.20;;;;;;;19.32;29.44;101020.31;7390891;19;20029;-63
2023/04/04 04:18:00;;;;;;;3.08;1.50;;;;;;;19.57;29.35;101013.78;7393016;19;20022;-63
2023/04/04 04:20:27;;;;;;;0.95;0.95;;;;;;;19.70;29.41;101015.31;7392820;19;20010;-62
2023/04/04 04:22:53;;;;;;;0.80;0.80;;;;;;;19.75;28.95;101017.41;7396330;19;20022;-62
2023/04/04 04:25:20;;;;;;;0.55;0.55;;;;;;;19.77;29.15;101003.53;7394099;19;20018;-62
2023/04/04 04:27:56;;;;;;;10.45;1.30;;;;;;;19.84;29.39;101008.69;7392555;19;20015;-62
2023/04/04 04:30:23;;;;;;;1.55;1.45;;;;;;;19.84;28.84;101017.91;7397269;19;20014;-62
2023/04/04 04:32:49;;;;;;;0.93;0.93;;;;;;;19.80;28.85;101008.13;7395157;19;20006;-62
2023/04/04 04:35:18;;;;;;;2.67;1.85;;;;;;;19.78;29.18;101017.13;7391736;19;20344;-62
2023/04/04 04:37:45;;;;;;;1.23;1.23;;;;;;;19.81;29.13;101015.34;7391983;19;20006;-61
2023/04/04 04:40:13;;;;;;;1.48;1.48;;;;;;;19.79;29.28;101017.91;7391518;19;20027;-61
2023/04/04 04:42:46;;;;;;;1.25;1.25;;;;;;;19.67;29.25;101017.91;7393639;19;20459;-61
2023/04/04 04:45:16;;;;;;;0.98;0.98;;;;;;;19.65;28.89;101011.97;7391339;19;20463;-62
2023/04/04 04:47:46;;;;;;;2.73;2.50;;;;;;;19.66;28.89;101016.34;7391922;19;20320;-61
2023/04/04 04:50:16;;;;;;;1.27;1.27;;;;;;;19.66;28.89;101016.34;7391446;19;20567;-62
2023/04/04 04:52:46;;;;;;;3.50;1.73;;;;;;;19.67;29.15;101017.13;7393405;19;20070;-62
2023/04/04 04:55:13;;;;;;;3.38;3.17;;;;;;;19.65;29.24;101020.47;7391780;19;20003;-62
2023/04/04 04:57:46;;;;;;;0.57;0.57;;;;;;;19.64;28.81;101018.16;7391941;19;20014;-62
2023/04/04 05:00:18;;;;;;;1.33;1.33;;;;;;;19.65;28.80;101014.81;7395759;19;20014;-62
2023/04/04 05:02:46;;;;;;;1.20;1.20;;;;;;;19.56;28.66;101017.88;7392575;19;20027;-62
2023/04/04 05:05:15;;;;;;;0.88;0.88;;;;;;;19.58;28.72;101014.53;7390919;19;20018;-62
2023/04/04 05:07:46;;;;;;;1.23;1.23;;;;;;;19.53;28.92;101021.69;7390189;19;20481;-60
2023/04/04 05:10:13;;;;;;;1.13;1.13;;;;;;;19.58;29.11;101017.34;7389982;19;20018;-60
2023/04/04 05:12:43;;;;;;;0.60;0.60;;;;;;;19.34;29.15;101017.78;7393081;19;20036;-60
2023/04/04 05:15:13;;;;;;;0.93;0.93;;;;;;;19.39;29.00;101019.88;7390639;19;20578;-60
2023/04/04 05:17:42;;;;;;;1.10;1.10;;;;;;;19.27;29.32;101023.91;7390993;19;20477;-61
2023/04/04 05:20:10;;;;;;;1.00;1.00;;;;;;;19.28;29.16;101019.78;7397880;19;20011;-61
2023/04/04 05:22:43;;;;;;;3.45;2.63;;;;;;;19.48;28.93;101016.81;7400010;19;20498;-60
2023/04/04 05:25:11;;;;;;;0.88;0.88;;;;;;;19.50;29.05;101019.91;7398876;19;20031;-61
2023/04/04 05:27:41;;;;;;;0.73;0.73;;;;;;;19.28;29.07;101014.16;7397745;19;20098;-60
2023/04/04 05:30:08;;;;;;;0.98;0.98;;;;;;;19.25;28.84;101020.81;7402013;19;20030;-62
2023/04/04 05:32:51;;;;;;;1.10;1.10;;;;;;;19.19;29.19;101005.88;7397680;19;20011;-61
2023/04/04 05:35:24;;;;;;;1.48;1.48;;;;;;;19.06;29.29;100999.19;7396623;19;20041;-61
2023/04/04 05:37:54;;;;;;;0.90;0.90;;;;;;;19.10;28.92;101008.94;7398354;19;20045;-61
2023/04/04 05:40:23;;;;;;;0.93;0.93;;;;;;;19.15;28.90;101007.41;7397153;19;20017;-61
2023/04/04 05:42:57;;;;;;;1.05;1.05;;;;;;;19.10;29.20;101008.94;7399383;19;20014;-61
2023/04/04 05:45:32;;;;;;;1.65;1.58;;;;;;;19.21;29.17;101011.81;7396731;19;20023;-61
2023/04/04 05:47:59;;;;;;;3.75;1.75;;;;;;;19.30;28.83;101013.63;7397926;19;20014;-61
2023/04/04 05:50:27;;;;;;;2.15;1.55;;;;;;;19.29;28.67;101014.94;7397298;19;20074;-61
2023/04/04 05:53:07;;;;;;;2.75;1.83;;;;;;;19.30;28.75;100999.50;7399383;19;20679;-61
2023/04/04 05:55:34;;;;;;;1.10;1.10;;;;;;;19.37;28.82;100994.19;7398224;19;20022;-61
2023/04/04 05:58:01;;;;;;;1.05;1.05;;;;;;;19.38;28.75;100990.06;7397938;19;20014;-61
2023/04/04 06:00:41;;;;;;;1.00;1.00;;;;;;;19.37;29.03;100982.88;7397711;19;20375;-61
2023/04/04 06:03:08;;;;;;;1.00;1.00;;;;;;;19.42;28.52;100990.63;7398466;19;20045;-61
2023/04/04 06:05:34;;;;;;;1.40;1.40;;;;;;;19.39;28.67;100982.38;7397405;19;20023;-61
2023/04/04 06:08:00;;;;;;;0.75;0.75;;;;;;;19.43;28.99;100980.84;7396362;19;20074;-61
2023/04/04 06:10:27;;;;;;;0.90;0.90;;;;;;;19.52;28.91;100972.13;7397746;19;20010;-61
2023/04/04 06:12:55;;;;;;;1.55;1.50;;;;;;;19.56;28.91;100972.66;7398464;19;20018;-62
2023/04/04 06:15:21;;;;;;;0.68;0.68;;;;;;;19.65;28.87;100969.59;7397080;19;20010;-61
2023/04/04 06:17:48;;;;;;;4.10;1.95;;;;;;;19.61;28.91;100977.56;7397663;19;20014;-61
2023/04/04 06:20:14;;;;;;;0.82;0.82;;;;;;;19.61;29.24;100974.72;7398138;19;20394;-61
2023/04/04 06:22:41;;;;;;;1.60;1.48;;;;;;;19.61;29.08;100980.38;7397773;19;20341;-61
2023/04/04 06:25:09;;;;;;;0.68;0.68;;;;;;;19.63;29.13;100982.69;7397466;19;20371;-61
2023/04/04 06:27:36;;;;;;;1.02;1.02;;;;;;;19.75;29.37;100980.66;7396076;19;20017;-61
2023/04/04 06:30:06;;;;;;;2.55;2.30;;;;;;;19.73;29.06;100974.75;7398144;19;20090;-61
2023/04/04 06:32:33;;;;;;;7.80;2.65;;;;;;;19.77;29.34;100980.91;7398969;19;20480;-61
2023/04/04 06:35:00;;;;;;;5.00;3.72;;;;;;;19.78;29.29;100985.25;7396437;19;20043;-61
2023/04/04 06:37:39;;;;;;;9.48;3.08;;;;;;;19.92;29.17;100987.09;7396190;19;20352;-60
2023/04/04 06:40:13;;;;;;;1.65;1.48;;;;;;;20.00;28.97;100988.13;7396770;19;20037;-61
2023/04/04 06:42:51;;;;;;;4.80;1.83;;;;;;;19.99;28.96;100980.94;7398689;19;20006;-61
2023/04/04 06:45:18;;;;;;;1.25;1.00;;;;;;;20.05;29.41;100984.53;7400155;19;20015;-61
2023/04/04 06:47:45;;;;;;;1.77;1.67;;;;;;;20.13;29.34;100985.56;7401110;19;20010;-61
2023/04/04 06:50:12;;;;;;;3.85;2.10;;;;;;;20.22;29.32;100993.81;7397875;19;20022;-61
2023/04/04 06:52:38;;;;;;;2.42;1.25;;;;;;;20.21;29.44;101003.56;7400933;19;20094;-61
2023/04/04 06:55:05;;;;;;;1.90;0.75;;;;;;;20.26;29.46;100994.31;7399497;19;20006;-61
2023/04/04 06:57:31;;;;;;;3.67;2.08;;;;;;;20.35;29.49;100991.22;7396492;19;20007;-61
2023/04/04 06:59:58;;;;;;;2.28;2.05;;;;;;;20.47;29.41;101000.47;7399398;19;20014;-61
2023/04/04 07:02:24;;;;;;;1.10;1.10;;;;;;;20.56;29.41;101000.97;7395893;19;20034;-61
2023/04/04 07:04:51;;;;;;;12.43;2.55;;;;;;;20.63;29.32;101000.44;7396496;19;20063;-61
2023/04/04 07:07:17;;;;;;;1.25;1.25;;;;;;;20.76;29.19;101002.72;7396551;19;20070;-61
2023/04/04 07:09:43;;;;;;;1.58;1.52;;;;;;;21.01;29.55;101002.41;7397168;19;20066;-61
2023/04/04 07:12:09;;;;;;;1.80;1.08;;;;;;;21.17;29.45;101000.03;7396593;19;20031;-61
2023/04/04 07:14:35;;;;;;;3.80;2.17;;;;;;;21.23;29.37;100995.13;7396457;19;20018;-60
2023/04/04 07:17:01;;;;;;;2.13;2.03;;;;;;;21.18;29.80;101001.59;7394601;19;20018;-60
2023/04/04 07:19:28;;;;;;;0.75;0.55;;;;;;;21.20;29.82;101002.63;7395647;19;20071;-60
2023/04/04 07:21:54;;;;;;;0.77;0.77;;;;;;;21.33;29.76;101004.88;7395636;19;20492;-60
2023/04/04 07:24:21;;;;;;;7.65;2.15;;;;;;;21.45;29.85;101000.69;7395559;19;20015;-61
2023/04/04 07:26:47;;;;;;;0.63;0.63;;;;;;;21.50;30.26;100991.38;7395307;19;20015;-62
2023/04/04 07:29:13;;;;;;;0.45;0.45;;;;;;;21.60;29.95;100993.38;7397429;19;20023;-61
2023/04/04 07:31:39;;;;;;;0.95;0.85;;;;;;;21.69;30.45;100986.63;7395033;19;20070;-60
2023/04/04 07:34:06;;;;;;;0.80;0.80;;;;;;;21.80;30.66;100984.50;7399501;19;20010;-60
2023/04/04 07:36:32;;;;;;;2.15;0.80;;;;;;;21.94;30.51;100979.75;7394096;19;20066;-60
2023/04/04 07:38:59;;;;;;;0.70;0.70;;;;;;;22.09;30.78;100980.16;7395489;19;20007;-60
2023/04/04 07:41:25;;;;;;;1.05;0.75;;;;;;;22.23;30.55;100984.69;7393952;19;20343;-60
2023/04/04 07:43:51;;;;;;;0.90;0.90;;;;;;;22.49;30.41;100989.84;7397909;19;20079;-60
2023/04/04 07:46:19;;;;;;;2.60;0.85;;;;;;;22.59;30.69;100988.22;7396432;19;20014;-61
2023/04/04 07:48:45;;;;;;;8.80;1.25;;;;;;;22.78;30.04;100985.47;7395802;19;20015;-64
2023/04/04 07:51:11;;;;;;;2.65;1.17;;;;;;;23.00;30.26;100985.22;7395826;19;20011;-63
2023/04/04 07:53:37;;;;;;;2.33;1.58;;;;;;;23.03;30.12;100978.44;7398738;19;20458;-63
2023/04/04 07:56:06;;;;;;;0.45;0.45;;;;;;;22.98;30.06;100984.94;7394081;19;20018;-63
2023/04/04 07:58:33;;;;;;;1.75;0.80;;;;;;;22.78;30.35;100983.41;7395849;19;20043;-64
2023/04/04 08:01:01;;;;;;;8.38;1.27;;;;;;;22.74;30.30;100976.47;7394858;19;20010;-64
2023/04/04 08:03:27;;;;;;;0.80;0.73;;;;;;;22.77;30.52;100975.38;7395977;19;20014;-64
2023/04/04 08:05:53;;;;;;;17.08;0.98;;;;;;;22.83;30.61;100978.94;7394523;19;20007;-64
2023/04/04 08:08:20;;;;;;;0.57;0.57;;;;;;;22.87;30.48;100982.25;7394165;19;20404;-64
2023/04/04 08:10:46;;;;;;;0.52;0.52;;;;;;;22.98;30.31;100979.28;7394536;19;20458;-65
2023/04/04 08:13:12;;;;;;;1.20;0.43;;;;;;;23.07;30.33;100978.91;7396843;19;20017;-65
2023/04/04 08:15:38;;;;;;;1.60;1.42;;;;;;;22.98;30.76;100980.03;7393766;19;20010;-64
2023/04/04 08:18:05;;;;;;;0.93;0.93;;;;;;;23.17;30.77;100980.09;7395214;19;20022;-65
2023/04/04 08:20:31;;;;;;;0.52;0.52;;;;;;;23.31;30.72;100976.00;7394388;19;20013;-60
2023/04/04 08:22:57;;;;;;;1.10;0.95;;;;;;;23.37;30.30;100981.66;7396102;19;20070;-60
2023/04/04 08:25:24;;;;;;;1.65;1.08;;;;;;;23.58;30.26;100986.28;7391778;19;20010;-60
2023/04/04 08:27:50;;;;;;;0.70;0.70;;;;;;;23.77;30.52;100986.25;7394944;19;20031;-60
2023/04/04 08:30:16;;;;;;;2.10;1.10;;;;;;;23.95;30.09;100983.34;7396530;19;20463;-60
2023/04/04 08:32:46;;;;;;;1.30;1.13;;;;;;;24.02;30.26;100991.25;7396576;19;20006;-61
2023/04/04 08:35:12;;;;;;;0.75;0.75;;;;;;;24.13;30.24;100989.59;7395912;19;20019;-61
2023/04/04 08:37:43;;;;;;;0.28;0.25;;;;;;;24.08;30.31;100991.97;7392685;19;20011;-61
2023/04/04 08:40:09;;;;;;;1.75;0.52;;;;;;;24.26;30.24;100995.28;7394477;19;20010;-61
2023/04/04 08:42:38;;;;;;;0.40;0.40;;;;;;;24.36;29.87;100990.75;7394253;19;20018;-61
2023/04/04 08:45:08;;;;;;;1.13;1.02;;;;;;;24.24;30.21;100989.38;7393140;19;20029;-61
2023/04/04 08:47:36;;;;;;;3.50;1.25;;;;;;;24.32;30.23;100984.59;7393462;19;20523;-61
2023/04/04 08:50:04;;;;;;;0.43;0.43;;;;;;;24.51;30.04;100973.91;7391867;19;20010;-61
2023/04/04 08:52:32;;;;;;;0.70;0.70;;;;;;;24.60;30.05;100982.00;7392676;19;20011;-61
2023/04/04 08:54:59;;;;;;;0.50;0.50;;;;;;;24.76;29.84;100983.78;7399327;19;20007;-61
2023/04/04 09:15:21;;;;;;;1.27;1.00;;;;;;;22.37;48.75;100975.00;7421746;19;20322;-78
2023/04/04 09:17:47;;;;;;;0.88;0.88;;;;;;;24.48;39.49;100969.28;7427911;19;20018;-78
2023/04/04 09:20:34;;;;;;;0.93;0.93;;;;;;;25.32;35.65;100969.91;7421423;19;20073;-78
2023/04/04 09:23:00;;;;;;;0.93;0.93;;;;;;;25.67;34.17;100959.31;7424781;19;20014;-77
2023/04/04 09:25:26;;;;;;;1.25;1.20;;;;;;;25.84;33.17;100963.31;7425473;19;20443;-77
2023/04/04 09:27:53;;;;;;;1.65;0.73;;;;;;;26.09;32.21;100958.06;7424778;19;20018;-77
2023/04/04 09:30:19;;;;;;;3.92;1.55;;;;;;;26.14;31.36;100954.28;7424793;19;20338;-78
2023/04/04 09:32:46;;;;;;;5.15;1.33;;;;;;;26.24;31.27;100958.94;7425065;19;20050;-77
2023/04/04 09:35:14;;;;;;;3.85;2.25;;;;;;;26.31;31.01;100954.63;7422634;19;20356;-78
2023/04/04 09:37:41;;;;;;;2.08;1.00;;;;;;;26.43;30.55;100953.00;7427562;19;20472;-78
2023/04/04 09:40:09;;;;;;;3.10;1.38;;;;;;;26.36;30.51;100953.69;7424767;19;20476;-78
2023/04/04 09:42:35;;;;;;;3.42;1.00;;;;;;;26.45;30.46;100956.06;7424605;19;20022;-78
2023/04/04 09:45:01;;;;;;;1.25;1.15;;;;;;;26.54;30.27;100949.06;7425647;19;20018;-78
2023/04/04 09:47:29;;;;;;;2.45;1.58;;;;;;;26.59;29.42;100937.50;7424776;19;20074;-78
2023/04/04 09:49:59;;;;;;;5.18;0.90;;;;;;;26.64;29.76;100945.13;7425092;19;20456;-78
2023/04/04 09:52:26;;;;;;;0.68;0.68;;;;;;;26.81;28.89;100939.00;7424381;19;20025;-78
2023/04/04 09:55:00;;;;;;;1.25;1.20;;;;;;;26.95;29.27;100941.16;7424983;19;20025;-77
2023/04/04 09:57:34;;;;;;;2.25;1.23;;;;;;;27.14;28.80;100942.97;7426170;19;20410;-78
2023/04/04 10:00:05;;;;;;;1.35;1.25;;;;;;;27.17;28.60;100950.41;7425681;19;20022;-78
2023/04/04 10:02:37;;;;;;;2.65;1.95;;;;;;;27.22;28.08;100952.34;7426868;19;20457;-79
2023/04/04 10:05:05;;;;;;;4.38;1.70;;;;;;;27.19;28.31;100948.50;7426411;19;20361;-80
2023/04/04 10:07:32;;;;;;;0.98;0.85;;;;;;;27.15;27.19;100958.78;7426587;19;20025;-80
2023/04/04 10:10:04;;;;;;;1.67;1.13;;;;;;;27.24;27.02;100953.31;7426797;19;20014;-80
2023/04/04 10:12:32;;;;;;;1.25;1.23;;;;;;;27.39;26.92;100946.91;7425187;19;20014;-80
2023/04/04 10:14:59;;;;;;;2.50;1.27;;;;;;;27.52;26.88;100958.19;7424978;19;20022;-80
2023/04/04 10:17:46;;;;;;;4.22;1.40;;;;;;;27.63;26.81;100946.41;7424451;19;20031;-80
2023/04/04 10:20:13;;;;;;;3.03;1.40;;;;;;;27.72;26.70;100948.72;7424697;19;20021;-80
2023/04/04 10:22:41;;;;;;;1.80;0.90;;;;;;;27.55;26.41;100951.31;7424633;19;20014;-80
2023/04/04 10:25:08;;;;;;;3.65;1.27;;;;;;;27.65;26.39;100950.22;7413304;19;20022;-87
2023/04/04 10:27:37;;;;;;;3.28;1.63;;;;;;;27.56;26.30;100953.63;7399428;19;20010;-84
2023/04/04 10:30:04;;;;;;;3.78;1.33;;;;;;;27.68;26.31;100962.59;7397435;19;20348;-81
2023/04/04 10:32:52;;;;;;;1.83;1.27;;;;;;;27.75;26.46;100959.00;7397268;19;20015;-84
2023/04/04 10:35:21;;;;;;;2.95;1.08;;;;;;;27.92;26.37;100953.50;7395936;19;20015;-86
2023/04/04 10:37:57;;;;;;;1.90;1.10;;;;;;;28.02;26.11;100954.50;7396901;19;20014;-83
2023/04/04 10:40:31;;;;;;;9.90;1.98;;;;;;;28.16;26.36;100946.47;7394776;19;20018;-80
2023/04/04 10:43:02;;;;;;;5.45;1.48;;;;;;;28.02;26.68;100942.28;7394547;19;20010;-86
2023/04/04 10:45:31;;;;;;;1.40;1.30;;;;;;;28.14;26.43;100947.06;7396536;19;20094;-83
2023/04/04 10:47:57;;;;;;;1.35;1.20;;;;;;;28.03;25.99;100933.09;7395271;19;20051;-84
2023/04/04 10:50:24;;;;;;;4.38;2.08;;;;;;;28.13;25.87;100934.06;7396166;19;20014;-83
2023/04/04 10:52:51;;;;;;;0.98;0.75;;;;;;;28.33;26.07;100935.97;7394937;19;20014;-83
2023/04/04 10:55:18;;;;;;;1.42;1.10;;;;;;;28.31;25.70;100941.50;7392802;19;20022;-83
2023/04/04 10:57:50;;;;;;;5.68;1.67;;;;;;;28.47;26.10;100930.78;7396666;19;20017;-83
2023/04/04 11:00:18;;;;;;;5.63;1.35;;;;;;;28.51;24.53;100920.47;7393681;19;20044;-83
2023/04/04 11:03:01;;;;;;;2.13;1.95;;;;;;;28.39;24.51;100918.59;7396163;19;20049;-83
2023/04/04 11:05:50;;;;;;;0.98;0.98;;;;;;;28.77;23.96;100930.00;7394529;19;20029;-83
2023/04/04 11:08:27;;;;;;;2.80;0.85;;;;;;;29.10;24.17;100917.25;7395474;19;20022;-83
2023/04/04 11:10:54;;;;;;;2.83;1.50;;;;;;;29.01;24.08;100924.38;7392955;19;20426;-83
2023/04/04 11:13:38;;;;;;;2.50;0.95;;;;;;;29.10;23.84;100917.25;7394460;19;20010;-83
2023/04/04 11:16:14;;;;;;;0.73;0.73;;;;;;;29.07;23.79;100909.81;7397205;19;20010;-83
2023/04/04 11:18:44;;;;;;;2.25;1.75;;;;;;;29.26;24.14;100912.25;7391297;19;20064;-83
2023/04/04 11:21:13;;;;;;;2.10;1.23;;;;;;;29.27;23.51;100908.78;7392840;19;20018;-83
2023/04/04 11:23:48;;;;;;;0.88;0.88;;;;;;;29.29;23.50;100905.31;7395637;19;20019;-83
2023/04/04 11:26:40;;;;;;;1.88;1.63;;;;;;;29.28;23.28;100893.09;7390678;19;20348;-83
2023/04/04 11:29:13;;;;;;;1.92;1.30;;;;;;;29.46;23.60;100891.84;7391392;19;20049;-83
2023/04/04 11:31:42;;;;;;;3.90;1.80;;;;;;;29.65;23.60;100879.84;7392589;19;20072;-83
2023/04/04 11:34:11;;;;;;;0.80;0.80;;;;;;;29.74;23.33;100882.88;7396092;19;20014;-83
2023/04/04 11:36:37;;;;;;;1.83;1.42;;;;;;;29.69;23.15;100878.06;7390419;19;20022;-84
2023/04/04 11:39:08;;;;;;;3.17;1.33;;;;;;;29.71;23.48;100866.78;7393661;19;20519;-83
2023/04/04 11:41:54;;;;;;;5.28;1.52;;;;;;;29.80;23.55;100859.66;7394129;19;20501;-83
2023/04/04 11:44:21;;;;;;;2.47;1.20;;;;;;;29.78;23.18;100863.09;7394065;19;20040;-83
2023/04/04 11:46:53;;;;;;;1.90;1.75;;;;;;;29.88;23.61;100861.13;7394001;19;20708;-83
2023/04/04 11:49:25;;;;;;;3.33;1.45;;;;;;;29.82;22.90;100872.06;7392081;19;20010;-83